Roopville, Georgia
Current Conditions -  °F | °C
As of 8:35 PM on Wednesday 26 Nov 2014 (Local Time) from KCCO Reporting Station
Overcast Overcast  
Wind Chill: 44°   Ceiling: 12000
Heat Index: 44°   Visibility: 10mi
Dew Point: 32°   Wind: 3mph
Humidity: 62%   Direction: 210°SSW
Pressure: 30.09"   Gusts: NA
Location:  33.46°N, 85.13°W
Report Text: KCCO 270135Z AUTO 21003KT 10SM SCT095 OVC120 07/00 A3009 RMK AO2 T00690000
Loading
Personal Weather Stations






























Interactive Weather Map New forecast layout! Learn more

10-Day Weather Forecast

Advertisements
Track Severe Weather on mobile